Time;durP1;ratioP1;P1;durP2;ratioP2;P2;SDS_P1;SDS_P2;PMS_P1;PMS_P2;Temp;Humidity;BMP_temperature;BMP_pressure;BME280_temperature;BME280_humidity;BME280_pressure;Samples;Min_cycle;Max_cycle;Signal;HPM_P1;HPM_P2
2023/08/26 00:01:48;;;;;;;6.85;6.15;;;;;;;25.06;59.42;96683.47;4866049;28;20197;-86
2023/08/26 00:04:13;;;;;;;7.05;5.95;;;;;;;25.16;59.30;96693.56;4855578;28;20654;-86
2023/08/26 00:06:39;;;;;;;9.57;6.50;;;;;;;25.10;59.87;96694.97;4854288;28;20204;-86
2023/08/26 00:09:05;;;;;;;7.82;7.03;;;;;;;25.03;59.89;96684.94;4869538;28;20240;-86
2023/08/26 00:11:30;;;;;;;6.43;5.82;;;;;;;24.98;60.57;96676.47;4861620;28;20211;-86
2023/08/26 00:13:55;;;;;;;6.60;5.97;;;;;;;25.04;60.96;96697.16;4855145;28;20184;-85
2023/08/26 00:16:21;;;;;;;7.82;6.32;;;;;;;24.91;61.38;96690.41;4868951;28;20269;-86
2023/08/26 00:18:47;;;;;;;7.65;6.78;;;;;;;24.96;60.75;96700.78;4848921;28;20239;-85
2023/08/26 00:21:14;;;;;;;7.60;6.60;;;;;;;25.08;60.41;96696.44;4850630;28;20233;-86
2023/08/26 00:23:39;;;;;;;7.05;6.03;;;;;;;25.03;60.41;96689.50;4850089;28;20173;-85
2023/08/26 00:26:05;;;;;;;7.20;6.30;;;;;;;25.10;60.30;96697.63;4871189;28;20585;-85
2023/08/26 00:28:30;;;;;;;7.80;6.85;;;;;;;25.07;60.18;96689.56;4855586;28;20191;-86
2023/08/26 00:30:57;;;;;;;6.97;5.82;;;;;;;24.85;60.80;96687.25;4853646;28;20349;-86
2023/08/26 00:33:22;;;;;;;7.10;6.38;;;;;;;24.87;60.75;96692.25;4853216;28;20614;-85
2023/08/26 00:35:48;;;;;;;9.63;6.47;;;;;;;24.85;59.60;96692.59;4837826;28;20268;-84
2023/08/26 00:38:13;;;;;;;5.85;5.25;;;;;;;24.79;59.66;96685.22;4837095;28;20211;-85
2023/08/26 00:40:38;;;;;;;6.65;5.65;;;;;;;24.83;59.73;96686.06;4854811;28;20363;-84
2023/08/26 00:43:10;;;;;;;8.90;6.63;;;;;;;24.85;60.19;96713.13;4842491;28;20208;-85
2023/08/26 00:45:46;;;;;;;7.97;6.18;;;;;;;24.80;60.23;96724.81;4836865;28;20169;-84
2023/08/26 00:48:12;;;;;;;8.25;6.72;;;;;;;24.65;61.24;96707.00;4854953;29;20188;-85
2023/08/26 00:50:38;;;;;;;9.40;6.32;;;;;;;24.61;60.87;96708.81;4851982;28;20653;-84
2023/08/26 00:53:04;;;;;;;8.35;5.55;;;;;;;24.57;60.96;96710.63;4844629;28;20694;-85
2023/08/26 00:55:30;;;;;;;7.75;6.00;;;;;;;24.49;61.26;96707.78;4851123;28;20322;-85
2023/08/26 00:57:56;;;;;;;7.50;5.72;;;;;;;24.39;61.26;96707.53;4842687;28;20197;-85
2023/08/26 01:00:23;;;;;;;8.45;5.78;;;;;;;24.41;61.96;96707.97;4854557;28;20212;-85
2023/08/26 01:05:47;;;;;;;7.57;5.63;;;;;;;24.30;61.99;96715.72;4871049;28;20644;-82
2023/08/26 01:08:13;;;;;;;6.20;5.60;;;;;;;24.24;61.96;96709.88;4841688;29;20287;-83
2023/08/26 01:11:06;;;;;;;6.80;6.20;;;;;;;24.38;62.29;96720.06;4868440;29;20296;-82
2023/08/26 01:13:41;;;;;;;8.20;5.97;;;;;;;24.29;62.45;96724.81;4862798;29;20201;-83
2023/08/26 01:16:07;;;;;;;8.80;6.97;;;;;;;24.19;62.68;96725.31;4855997;29;20649;-83
2023/08/26 01:18:33;;;;;;;8.13;7.22;;;;;;;24.14;63.01;96722.91;4848768;28;20168;-83
2023/08/26 01:20:59;;;;;;;8.77;6.70;;;;;;;24.15;62.95;96730.56;4837685;29;20208;-83
2023/08/26 01:23:50;;;;;;;7.18;5.70;;;;;;;24.21;62.96;96736.38;4817984;29;20174;-82
2023/08/26 01:26:16;;;;;;;6.90;6.30;;;;;;;24.04;62.96;96732.19;4849254;29;20392;-83
2023/08/26 01:28:41;;;;;;;7.88;6.32;;;;;;;24.01;62.85;96728.34;4834459;29;20208;-82
2023/08/26 01:31:10;;;;;;;9.82;6.63;;;;;;;23.96;63.09;96736.56;4833800;29;20779;-83
2023/08/26 01:33:54;;;;;;;8.55;6.30;;;;;;;23.99;62.96;96735.88;4871195;28;20752;-82
2023/08/26 01:36:22;;;;;;;8.75;6.03;;;;;;;24.00;63.37;96726.78;4867924;28;20246;-83
2023/08/26 01:38:48;;;;;;;9.00;6.30;;;;;;;23.88;63.44;96735.59;4849381;29;20218;-82
2023/08/26 01:41:17;;;;;;;7.70;5.80;;;;;;;23.96;63.30;96727.78;4838415;29;20191;-83
2023/08/26 01:43:43;;;;;;;6.60;5.97;;;;;;;23.85;63.10;96736.28;4848138;29;20276;-82
2023/08/26 01:46:08;;;;;;;7.05;5.95;;;;;;;23.90;63.00;96745.91;4863485;28;20157;-82
2023/08/26 01:48:33;;;;;;;7.03;6.32;;;;;;;23.84;63.05;96744.63;4867049;28;20203;-83
2023/08/26 01:50:59;;;;;;;7.18;5.80;;;;;;;23.81;63.30;96755.91;4843067;29;20255;-82
2023/08/26 01:53:27;;;;;;;7.13;5.28;;;;;;;23.82;62.77;96744.97;4866069;29;20206;-83
2023/08/26 01:55:52;;;;;;;8.13;4.97;;;;;;;23.68;63.07;96747.22;4880072;28;20172;-82
2023/08/26 01:58:21;;;;;;;5.90;5.38;;;;;;;23.68;62.95;96753.31;4851966;29;20209;-82
2023/08/26 02:00:46;;;;;;;7.03;5.43;;;;;;;23.69;62.66;96751.41;4836893;29;20190;-82
2023/08/26 02:03:11;;;;;;;7.10;5.38;;;;;;;23.69;62.23;96752.19;4854132;29;20381;-82
2023/08/26 02:05:37;;;;;;;6.53;5.90;;;;;;;23.66;62.41;96754.75;4838601;29;20725;-81
2023/08/26 02:08:02;;;;;;;7.65;4.97;;;;;;;23.73;61.96;96758.38;4835629;29;20200;-81
2023/08/26 02:10:28;;;;;;;8.38;5.10;;;;;;;23.69;61.51;96765.47;4868018;28;20380;-82
2023/08/26 02:12:53;;;;;;;5.80;5.20;;;;;;;23.64;61.69;96771.03;4840956;29;20197;-82
2023/08/26 02:15:18;;;;;;;6.57;5.28;;;;;;;23.62;62.21;96765.28;4852104;29;20168;-82
2023/08/26 02:17:44;;;;;;;9.93;5.55;;;;;;;23.58;61.57;96768.97;4835037;29;20644;-82
2023/08/26 02:20:09;;;;;;;8.02;5.47;;;;;;;23.61;61.80;96777.03;4836273;29;20358;-82
2023/08/26 02:22:35;;;;;;;6.38;5.72;;;;;;;23.57;62.29;96768.19;4850101;29;20172;-82
2023/08/26 02:25:00;;;;;;;6.63;5.40;;;;;;;23.46;62.38;96767.13;4847639;29;20583;-82
2023/08/26 02:27:26;;;;;;;5.88;5.28;;;;;;;23.62;61.09;96786.56;4867397;28;20181;-82
2023/08/26 02:29:51;;;;;;;6.40;5.32;;;;;;;23.54;61.49;96780.28;4866678;29;20123;-83
2023/08/26 02:32:17;;;;;;;7.75;5.35;;;;;;;23.51;62.35;96786.28;4833366;29;20688;-82
2023/08/26 02:34:42;;;;;;;8.32;5.18;;;;;;;23.55;61.59;96802.31;4874123;29;20259;-82
2023/08/26 02:37:08;;;;;;;6.45;4.95;;;;;;;23.46;60.60;96786.50;4853978;29;20219;-83
2023/08/26 02:39:33;;;;;;;6.80;5.35;;;;;;;23.52;60.83;96797.66;4854243;29;20195;-82
2023/08/26 02:41:59;;;;;;;8.32;6.35;;;;;;;23.58;60.96;96806.16;4823954;29;20312;-82
2023/08/26 02:44:24;;;;;;;6.18;5.57;;;;;;;23.56;60.55;96809.16;4837857;29;20203;-81
2023/08/26 02:46:49;;;;;;;6.30;5.53;;;;;;;23.51;60.04;96815.50;4843202;29;20684;-80
2023/08/26 02:49:15;;;;;;;6.10;5.50;;;;;;;23.44;60.85;96811.88;4856979;29;20287;-80
2023/08/26 02:51:40;;;;;;;7.50;6.55;;;;;;;23.33;59.96;96811.56;4856358;29;20160;-81
2023/08/26 02:54:05;;;;;;;7.22;5.90;;;;;;;23.16;59.97;96796.66;4826972;29;20576;-81
2023/08/26 02:56:31;;;;;;;7.35;5.60;;;;;;;23.29;59.63;96813.38;4858465;29;20637;-80
2023/08/26 02:58:56;;;;;;;7.80;5.32;;;;;;;23.16;60.09;96796.66;4855201;29;20200;-82
2023/08/26 03:01:21;;;;;;;6.72;5.28;;;;;;;23.15;59.43;96811.84;4869583;29;20176;-81
2023/08/26 03:03:47;;;;;;;9.02;5.03;;;;;;;23.13;59.59;96805.31;4871064;29;20169;-81
2023/08/26 03:06:12;;;;;;;4.90;4.43;;;;;;;23.16;59.28;96818.69;4871782;29;20126;-81
2023/08/26 03:08:37;;;;;;;7.53;5.00;;;;;;;23.07;60.28;96817.28;4870520;29;20220;-80
2023/08/26 03:11:04;;;;;;;5.45;4.25;;;;;;;23.13;59.78;96831.84;4870147;28;20721;-81
2023/08/26 03:13:30;;;;;;;5.75;4.38;;;;;;;23.03;59.63;96835.72;4840249;29;20647;-81
2023/08/26 03:15:56;;;;;;;6.30;4.47;;;;;;;22.97;59.98;96821.88;4839060;29;20215;-80
2023/08/26 03:18:22;;;;;;;5.28;4.43;;;;;;;22.91;60.38;96822.44;4870804;29;20223;-81
2023/08/26 03:20:48;;;;;;;6.85;4.28;;;;;;;22.96;60.11;96830.97;4870170;29;20570;-81
2023/08/26 03:23:13;;;;;;;4.45;3.97;;;;;;;22.88;60.02;96826.56;4874550;28;20649;-80
2023/08/26 03:25:40;;;;;;;5.78;4.03;;;;;;;22.84;59.29;96828.31;4873401;29;20224;-82
2023/08/26 03:28:08;;;;;;;4.25;3.72;;;;;;;22.94;59.29;96835.81;4840898;29;20591;-81
2023/08/26 03:30:34;;;;;;;5.28;3.85;;;;;;;22.78;59.91;96838.38;4841698;29;20345;-80
2023/08/26 03:32:59;;;;;;;4.60;3.80;;;;;;;22.81;59.46;96848.34;4856150;29;20548;-81
2023/08/26 03:35:25;;;;;;;4.15;3.17;;;;;;;22.77;58.85;96852.00;4842434;29;20251;-80
2023/08/26 03:37:50;;;;;;;4.60;3.30;;;;;;;22.69;58.05;96848.34;4862693;29;20723;-81
2023/08/26 03:40:16;;;;;;;4.65;3.45;;;;;;;22.67;59.25;96844.47;4841254;29;20352;-81
2023/08/26 03:42:41;;;;;;;4.25;3.85;;;;;;;22.59;59.32;96854.84;4844402;29;20191;-82
2023/08/26 03:45:07;;;;;;;3.50;3.08;;;;;;;22.55;58.89;96851.31;4826399;29;20561;-81
2023/08/26 03:47:33;;;;;;;4.70;3.40;;;;;;;22.32;59.13;96836.91;4826899;29;20778;-81
2023/08/26 03:49:59;;;;;;;5.57;3.25;;;;;;;22.33;59.31;96849.84;4841798;29;20276;-81
2023/08/26 03:52:24;;;;;;;3.55;3.25;;;;;;;22.21;59.23;96850.56;4843197;29;20262;-81
2023/08/26 03:54:49;;;;;;;2.90;2.70;;;;;;;22.19;59.17;96857.28;4842571;29;20557;-81
2023/08/26 03:57:15;;;;;;;4.63;3.67;;;;;;;21.99;59.20;96848.31;4829341;29;20334;-81
2023/08/26 03:59:40;;;;;;;4.60;3.58;;;;;;;21.79;60.60;96850.63;4856421;29;20710;-81
2023/08/26 04:02:05;;;;;;;3.85;3.13;;;;;;;21.75;61.08;96860.34;4861755;29;20183;-81
2023/08/26 04:04:31;;;;;;;3.28;2.92;;;;;;;21.54;61.46;96864.88;4873084;29;20199;-81
2023/08/26 04:06:57;;;;;;;3.03;2.60;;;;;;;21.47;61.50;96845.00;4867488;29;20117;-81
2023/08/26 04:09:23;;;;;;;3.72;2.90;;;;;;;21.40;61.18;96855.28;4874287;29;20207;-81
2023/08/26 04:11:49;;;;;;;4.32;3.03;;;;;;;21.38;61.03;96857.47;4858385;29;20184;-82
2023/08/26 04:14:14;;;;;;;4.93;2.85;;;;;;;21.30;61.51;96858.31;4850855;29;20215;-81
2023/08/26 04:16:40;;;;;;;4.32;2.95;;;;;;;21.26;61.38;96873.28;4858805;29;20638;-81
2023/08/26 04:19:06;;;;;;;4.15;3.03;;;;;;;21.12;62.64;96871.66;4870062;29;20168;-80
2023/08/26 04:21:31;;;;;;;3.85;3.55;;;;;;;21.20;62.47;96878.00;4842330;29;20637;-81
2023/08/26 04:23:57;;;;;;;4.05;3.30;;;;;;;21.03;63.42;96873.59;4857806;29;20280;-80
2023/08/26 04:26:23;;;;;;;3.55;3.13;;;;;;;21.20;63.15;96878.00;4842159;29;20220;-80
2023/08/26 04:28:48;;;;;;;3.42;2.97;;;;;;;21.08;63.14;96865.47;4873390;29;20232;-80
2023/08/26 04:31:13;;;;;;;3.58;3.28;;;;;;;21.12;63.18;96882.25;4840553;29;20100;-81
2023/08/26 04:33:39;;;;;;;4.18;3.10;;;;;;;21.21;62.40;96889.38;4857578;29;20200;-80
2023/08/26 04:36:04;;;;;;;4.05;3.33;;;;;;;21.17;61.89;96891.13;4841978;29;20172;-81
2023/08/26 04:38:30;;;;;;;3.83;3.00;;;;;;;21.09;62.12;96898.00;4847487;29;20164;-80
2023/08/26 04:40:56;;;;;;;4.05;3.10;;;;;;;21.04;62.35;96896.31;4858667;29;20265;-81
2023/08/26 04:43:21;;;;;;;3.88;3.05;;;;;;;20.90;62.52;96885.94;4853508;29;20239;-81
2023/08/26 04:45:47;;;;;;;5.68;3.20;;;;;;;20.94;63.20;96891.38;4856650;29;20239;-81
2023/08/26 04:48:12;;;;;;;3.75;3.13;;;;;;;21.01;62.48;96896.16;4856145;29;20319;-81
2023/08/26 04:50:37;;;;;;;4.63;3.10;;;;;;;20.95;63.42;96888.41;4874751;29;20738;-80
2023/08/26 04:53:04;;;;;;;3.65;3.05;;;;;;;21.05;63.18;96902.38;4841926;29;20344;-81
2023/08/26 04:55:31;;;;;;;4.80;3.20;;;;;;;20.97;62.97;96897.91;4855906;29;20263;-81
2023/08/26 04:57:56;;;;;;;5.57;3.40;;;;;;;21.06;63.13;96903.91;4837770;29;20329;-81
2023/08/26 05:00:22;;;;;;;5.30;3.53;;;;;;;21.07;63.20;96906.25;4866438;28;20622;-82
2023/08/26 05:02:51;;;;;;;5.35;2.90;;;;;;;21.09;62.54;96892.69;4819381;29;20094;-82
2023/08/26 05:05:18;;;;;;;3.67;3.03;;;;;;;21.08;62.18;96891.16;4819566;29;20661;-82
2023/08/26 05:07:43;;;;;;;3.85;3.03;;;;;;;21.11;62.48;96898.44;4835905;29;20219;-82
2023/08/26 05:10:09;;;;;;;3.03;2.70;;;;;;;21.17;62.65;96907.75;4835412;29;20251;-81
2023/08/26 05:12:35;;;;;;;3.65;2.75;;;;;;;21.17;63.15;96905.13;4836067;29;20196;-82
2023/08/26 05:15:00;;;;;;;2.97;2.67;;;;;;;21.23;61.69;96926.88;4866146;29;20323;-82
2023/08/26 05:17:25;;;;;;;3.35;2.90;;;;;;;21.25;61.70;96919.38;4835008;29;20685;-81
2023/08/26 05:19:51;;;;;;;3.30;3.00;;;;;;;21.28;61.39;96919.56;4849545;29;20163;-82
2023/08/26 05:22:17;;;;;;;2.55;2.20;;;;;;;21.28;60.96;96924.84;4836035;29;20295;-81
2023/08/26 05:24:42;;;;;;;2.60;2.40;;;;;;;21.27;60.21;96935.75;4836328;29;20281;-82
2023/08/26 05:27:07;;;;;;;3.13;2.80;;;;;;;21.31;60.69;96934.00;4818592;29;20215;-82
2023/08/26 05:29:33;;;;;;;2.72;2.40;;;;;;;21.33;60.28;96931.81;4854288;29;20291;-81
2023/08/26 05:31:59;;;;;;;5.97;2.60;;;;;;;21.26;60.56;96934.97;4820896;29;20557;-82
2023/08/26 05:34:24;;;;;;;3.40;2.15;;;;;;;21.27;57.95;96925.16;4849256;29;20271;-82
2023/08/26 05:36:49;;;;;;;2.28;2.05;;;;;;;21.23;57.85;96926.88;4851367;29;20668;-81
2023/08/26 05:39:15;;;;;;;3.88;2.20;;;;;;;21.27;56.15;96936.53;4835969;29;20403;-81
2023/08/26 05:41:40;;;;;;;2.20;2.00;;;;;;;21.27;54.80;96941.06;4849826;29;20161;-81
2023/08/26 05:44:06;;;;;;;3.72;1.90;;;;;;;21.22;56.55;96943.88;4834927;29;20392;-82
2023/08/26 05:46:31;;;;;;;2.47;2.20;;;;;;;21.10;55.41;96941.91;4848190;29;20223;-82
2023/08/26 05:48:57;;;;;;;2.22;2.03;;;;;;;21.17;53.52;96933.47;4838050;29;20279;-82
2023/08/26 05:51:22;;;;;;;2.00;1.50;;;;;;;21.19;53.33;96944.50;4850933;29;20367;-82
2023/08/26 05:53:47;;;;;;;2.20;1.70;;;;;;;21.22;53.23;96942.00;4834694;29;20769;-82
2023/08/26 05:56:13;;;;;;;1.70;1.55;;;;;;;21.19;52.18;96940.00;4837061;29;20711;-81
2023/08/26 05:58:38;;;;;;;2.08;1.85;;;;;;;21.19;52.41;96945.28;4849859;29;21569;-81
2023/08/26 06:01:04;;;;;;;2.42;1.55;;;;;;;21.29;51.43;96955.50;4841370;29;20199;-82
2023/08/26 06:03:29;;;;;;;2.00;1.60;;;;;;;21.33;51.65;96956.44;4851130;29;20199;-81
2023/08/26 06:05:54;;;;;;;3.30;2.15;;;;;;;21.33;51.71;96958.28;4868780;29;20609;-82
2023/08/26 06:08:20;;;;;;;2.53;1.77;;;;;;;21.31;52.43;96955.97;4851085;29;20309;-82
2023/08/26 06:10:45;;;;;;;1.58;1.48;;;;;;;21.26;52.80;96950.09;4855189;29;20206;-82
2023/08/26 06:13:10;;;;;;;2.45;1.50;;;;;;;21.25;54.08;96951.16;4851804;29;20164;-82
2023/08/26 06:15:36;;;;;;;1.98;1.58;;;;;;;21.28;54.57;96953.19;4868054;29;20283;-82
2023/08/26 06:18:01;;;;;;;2.70;1.95;;;;;;;21.31;55.23;96945.38;4839961;29;20487;-82
2023/08/26 06:20:27;;;;;;;2.35;1.75;;;;;;;21.30;55.92;96946.50;4836616;29;20287;-82
2023/08/26 06:22:52;;;;;;;2.35;1.88;;;;;;;21.33;54.72;96947.72;4836598;29;20658;-82
2023/08/26 06:25:18;;;;;;;3.25;2.00;;;;;;;21.41;54.86;96946.88;4849888;29;20209;-82
2023/08/26 06:27:43;;;;;;;4.10;1.60;;;;;;;21.51;55.42;96957.16;4835456;29;20203;-82
2023/08/26 06:30:09;;;;;;;2.50;1.95;;;;;;;21.54;55.34;96950.44;4860842;29;20223;-82
2023/08/26 06:32:35;;;;;;;4.07;2.58;;;;;;;21.49;54.63;96935.50;4866352;29;20299;-82
2023/08/26 06:35:00;;;;;;;2.55;2.03;;;;;;;21.58;54.14;96942.63;4848998;29;20271;-82
2023/08/26 06:37:25;;;;;;;2.03;1.83;;;;;;;21.59;53.54;96947.59;4841159;29;20197;-83
2023/08/26 06:39:51;;;;;;;2.22;1.63;;;;;;;21.66;53.63;96947.06;4847417;29;20169;-82
2023/08/26 06:42:16;;;;;;;3.00;2.17;;;;;;;21.70;54.10;96953.28;4839936;29;20798;-82
2023/08/26 06:44:42;;;;;;;4.38;2.30;;;;;;;21.69;53.41;96936.63;4832517;29;20284;-81
2023/08/26 06:47:08;;;;;;;2.83;1.70;;;;;;;21.73;52.26;96944.72;4848751;29;20285;-81
2023/08/26 06:49:33;;;;;;;2.22;2.03;;;;;;;21.65;54.00;96937.59;4835015;29;20648;-82
2023/08/26 06:51:59;;;;;;;2.67;1.70;;;;;;;21.68;52.46;96937.72;4865834;28;20307;-82
2023/08/26 06:54:24;;;;;;;2.95;1.88;;;;;;;21.68;54.23;96939.59;4818456;29;20212;-82
2023/08/26 06:56:50;;;;;;;1.80;1.50;;;;;;;21.80;53.31;96936.25;4834758;29;20184;-83
2023/08/26 06:59:16;;;;;;;3.10;1.88;;;;;;;21.65;53.40;96922.47;4817956;29;20279;-81
2023/08/26 07:01:41;;;;;;;2.58;1.60;;;;;;;21.57;53.34;96922.50;4836472;29;20673;-82
2023/08/26 07:04:07;;;;;;;2.45;1.52;;;;;;;21.54;51.07;96917.84;4841700;29;20023;-82
2023/08/26 07:06:34;;;;;;;1.73;1.63;;;;;;;21.49;50.71;96919.59;4857548;29;20047;-82
2023/08/26 07:08:59;;;;;;;1.70;1.50;;;;;;;21.63;50.35;96926.53;4847700;29;20035;-82
2023/08/26 07:11:25;;;;;;;1.35;1.25;;;;;;;21.91;49.47;96937.38;4826921;29;20031;-82
2023/08/26 07:13:51;;;;;;;1.88;1.60;;;;;;;22.02;48.65;96930.59;4874429;28;20042;-81
2023/08/26 07:16:16;;;;;;;3.03;1.90;;;;;;;22.10;47.84;96926.31;4823850;29;20856;-81
2023/08/26 07:18:42;;;;;;;4.55;1.70;;;;;;;22.37;48.19;96937.50;4854774;29;20070;-81
2023/08/26 07:21:07;;;;;;;2.08;1.70;;;;;;;22.47;49.21;96931.78;4841052;29;20234;-82
2023/08/26 07:23:32;;;;;;;2.08;1.67;;;;;;;22.61;48.75;96932.25;4857212;29;20035;-82
2023/08/26 07:25:58;;;;;;;1.80;1.30;;;;;;;22.83;47.67;96940.94;4842285;29;20791;-82
2023/08/26 07:28:23;;;;;;;2.35;1.30;;;;;;;22.94;46.26;96939.38;4851582;29;20027;-82
2023/08/26 07:30:50;;;;;;;2.58;1.33;;;;;;;22.97;45.29;96935.28;4826071;29;20552;-82
2023/08/26 07:33:16;;;;;;;2.58;1.50;;;;;;;23.06;45.33;96929.91;4856797;29;20815;-82
2023/08/26 07:35:41;;;;;;;1.73;1.50;;;;;;;23.13;45.20;96930.13;4858719;29;20053;-83
2023/08/26 07:38:07;;;;;;;1.27;1.17;;;;;;;23.07;44.04;96915.53;4852579;29;20098;-82
2023/08/26 07:40:32;;;;;;;1.63;1.13;;;;;;;23.43;43.88;96921.94;4844340;29;20027;-83
2023/08/26 07:42:58;;;;;;;3.00;1.20;;;;;;;23.54;43.52;96928.31;4845079;29;20141;-82
2023/08/26 07:45:24;;;;;;;2.30;1.55;;;;;;;23.43;44.53;96924.59;4841179;29;20042;-82
2023/08/26 07:47:49;;;;;;;2.53;1.45;;;;;;;23.65;41.92;96923.34;4841070;29;20039;-82
2023/08/26 07:50:15;;;;;;;2.88;1.17;;;;;;;23.86;41.63;96923.19;4840839;29;20032;-83
2023/08/26 07:52:40;;;;;;;1.45;1.10;;;;;;;23.96;42.24;96930.69;4840563;29;20042;-82
2023/08/26 07:55:06;;;;;;;2.03;1.33;;;;;;;24.00;43.71;96930.78;4843647;29;20038;-82
2023/08/26 07:57:31;;;;;;;1.15;0.95;;;;;;;23.99;42.95;96922.03;4839153;29;20635;-81
2023/08/26 07:59:57;;;;;;;2.35;1.02;;;;;;;24.01;42.00;96922.47;4875812;28;20815;-82
2023/08/26 08:02:22;;;;;;;1.10;1.00;;;;;;;24.19;40.82;96922.19;4856054;28;21023;-82
2023/08/26 08:04:47;;;;;;;1.55;1.27;;;;;;;24.20;42.12;96915.75;4823354;29;20039;-83
2023/08/26 08:07:13;;;;;;;3.60;1.23;;;;;;;23.93;42.71;96910.09;4856295;29;20050;-82
2023/08/26 08:09:39;;;;;;;1.50;1.10;;;;;;;23.88;40.70;96926.28;4878856;28;20047;-82
2023/08/26 08:12:04;;;;;;;1.55;1.00;;;;;;;24.05;38.64;96915.34;4874638;29;20644;-82
2023/08/26 08:14:30;;;;;;;2.05;1.00;;;;;;;24.09;40.29;96920.75;4856728;29;20070;-83
2023/08/26 08:16:55;;;;;;;1.20;1.10;;;;;;;24.07;39.83;96918.44;4861717;29;20564;-82
2023/08/26 08:19:21;;;;;;;2.05;1.15;;;;;;;24.04;40.67;96921.81;4858617;28;20706;-83
2023/08/26 08:21:47;;;;;;;1.95;1.02;;;;;;;23.92;43.19;96927.94;4860939;29;20219;-83
2023/08/26 08:24:13;;;;;;;3.17;1.15;;;;;;;23.86;43.88;96936.47;4853788;29;20165;-84
2023/08/26 08:26:43;;;;;;;0.80;0.80;;;;;;;24.05;42.03;96920.69;4849880;29;20724;-82
2023/08/26 08:29:08;;;;;;;1.73;1.00;;;;;;;24.09;40.45;96920.75;4848583;29;20344;-82
2023/08/26 08:31:34;;;;;;;1.30;0.98;;;;;;;24.15;40.13;96918.66;4864483;29;20043;-81
2023/08/26 08:33:59;;;;;;;1.70;0.93;;;;;;;24.24;39.18;96922.69;4864813;29;20035;-81
2023/08/26 08:36:24;;;;;;;1.33;1.10;;;;;;;24.31;38.78;96928.19;4832850;29;20097;-81
2023/08/26 08:38:50;;;;;;;1.15;1.02;;;;;;;24.08;39.20;96919.25;4863051;29;20031;-81
2023/08/26 08:41:15;;;;;;;2.80;1.00;;;;;;;24.17;40.60;96937.72;4873051;29;20716;-82
2023/08/26 08:43:43;;;;;;;1.70;1.17;;;;;;;24.49;40.24;96934.00;4850966;29;20721;-80
2023/08/26 08:46:09;;;;;;;1.90;1.10;;;;;;;24.57;41.06;96928.88;4852620;29;20746;-81
2023/08/26 08:48:35;;;;;;;1.08;1.02;;;;;;;24.74;38.86;96927.78;4840061;29;20271;-81
2023/08/26 08:51:03;;;;;;;3.60;1.50;;;;;;;24.82;38.59;96916.19;4836640;28;20243;-80
2023/08/26 08:53:32;;;;;;;1.75;1.10;;;;;;;24.52;40.77;96927.22;4858307;29;20067;-82
2023/08/26 08:56:00;;;;;;;2.15;1.33;;;;;;;24.80;38.64;96921.09;4864442;29;20089;-80
2023/08/26 08:58:35;;;;;;;1.27;1.00;;;;;;;24.79;37.99;96935.53;4837001;29;20871;-82
2023/08/26 09:01:00;;;;;;;2.40;1.23;;;;;;;24.73;38.90;96932.34;4850483;29;20090;-81
2023/08/26 09:03:26;;;;;;;1.20;0.90;;;;;;;24.51;39.76;96931.00;4868981;29;20641;-81
2023/08/26 09:05:54;;;;;;;1.05;0.93;;;;;;;24.61;37.62;96937.75;4853818;29;20254;-81
2023/08/26 09:08:20;;;;;;;1.30;1.20;;;;;;;24.62;38.64;96933.94;4836670;29;20211;-83
2023/08/26 09:10:46;;;;;;;1.60;0.90;;;;;;;24.54;39.09;96948.16;4838321;29;20296;-81
2023/08/26 09:13:12;;;;;;;1.85;1.13;;;;;;;24.38;40.75;96924.97;4839834;29;20271;-82
2023/08/26 09:15:38;;;;;;;0.98;0.85;;;;;;;24.58;40.61;96933.09;4854118;29;20797;-81
2023/08/26 09:18:08;;;;;;;0.82;0.82;;;;;;;24.53;37.97;96918.13;4854188;29;20264;-81
2023/08/26 09:20:38;;;;;;;1.10;0.80;;;;;;;24.66;39.11;96932.94;4837402;29;20279;-82
2023/08/26 09:23:04;;;;;;;1.35;1.10;;;;;;;24.52;39.76;96926.44;4837888;29;20359;-82
2023/08/26 09:25:49;;;;;;;2.40;1.17;;;;;;;24.45;39.96;96922.50;4832367;29;20283;-82
2023/08/26 09:28:15;;;;;;;1.85;1.10;;;;;;;24.56;38.27;96933.44;4851580;29;20244;-83
2023/08/26 09:30:40;;;;;;;1.00;0.90;;;;;;;24.59;39.48;96935.44;4852126;29;20195;-83
2023/08/26 09:33:11;;;;;;;2.63;1.00;;;;;;;24.45;39.82;96929.69;4829692;29;20170;-84
2023/08/26 09:35:46;;;;;;;2.42;1.27;;;;;;;24.36;40.52;96927.19;4845594;29;20220;-84
2023/08/26 09:38:12;;;;;;;1.65;0.77;;;;;;;24.28;38.92;96923.59;4845459;29;20197;-83
2023/08/26 09:40:38;;;;;;;1.63;0.98;;;;;;;24.35;39.49;96930.19;4867241;28;20208;-83
2023/08/26 09:43:06;;;;;;;1.40;0.70;;;;;;;24.14;38.85;96925.09;4836682;29;20195;-83
2023/08/26 09:45:36;;;;;;;2.58;1.00;;;;;;;24.10;40.00;96914.34;4836963;29;20195;-83
2023/08/26 09:48:01;;;;;;;3.20;1.00;;;;;;;24.07;39.99;96909.69;4837802;29;20234;-82
2023/08/26 09:50:33;;;;;;;3.45;0.95;;;;;;;23.99;41.88;96924.72;4853142;29;20290;-82
2023/08/26 09:52:59;;;;;;;1.27;1.15;;;;;;;23.93;40.99;96907.44;4837189;29;20794;-83
2023/08/26 09:55:24;;;;;;;2.95;1.10;;;;;;;23.91;41.24;96925.63;4836354;29;20305;-82
2023/08/26 09:57:52;;;;;;;1.10;1.00;;;;;;;23.90;42.15;96929.38;4852257;29;20634;-83
2023/08/26 10:00:20;;;;;;;1.27;1.10;;;;;;;23.93;41.73;96921.50;4854058;29;20203;-82
2023/08/26 10:02:48;;;;;;;1.10;1.00;;;;;;;23.94;40.32;96916.97;4837225;29;20714;-82
2023/08/26 10:05:17;;;;;;;2.35;1.30;;;;;;;23.96;40.77;96929.91;4852795;29;20270;-83
2023/08/26 10:07:46;;;;;;;2.15;1.25;;;;;;;23.97;40.90;96934.88;4852526;29;20639;-83
2023/08/26 10:10:24;;;;;;;1.92;1.30;;;;;;;24.03;42.50;96946.06;4837137;29;20574;-83
2023/08/26 10:12:50;;;;;;;2.50;1.88;;;;;;;23.93;43.94;96949.97;4850676;29;20695;-84
2023/08/26 10:15:18;;;;;;;2.45;1.13;;;;;;;24.05;41.42;96933.97;4828924;29;20338;-82
2023/08/26 10:17:44;;;;;;;1.67;1.30;;;;;;;24.07;40.77;96946.94;4833450;29;20208;-82
2023/08/26 10:20:11;;;;;;;1.52;1.40;;;;;;;24.02;41.37;96953.25;4846369;29;20600;-82
2023/08/26 10:22:37;;;;;;;2.45;1.55;;;;;;;24.06;42.26;96951.50;4837061;29;20203;-83
2023/08/26 10:25:04;;;;;;;2.35;1.42;;;;;;;24.04;43.22;96952.94;4837758;29;20206;-83
2023/08/26 10:27:30;;;;;;;2.05;1.20;;;;;;;23.89;41.92;96941.91;4821419;29;20195;-82
2023/08/26 10:29:55;;;;;;;1.50;1.30;;;;;;;24.03;41.49;96936.19;4849560;29;20228;-82
2023/08/26 10:32:22;;;;;;;2.63;1.45;;;;;;;24.02;40.91;96950.59;4834422;28;20650;-83
2023/08/26 10:34:54;;;;;;;1.92;1.45;;;;;;;24.09;42.38;96945.50;4822484;29;20279;-83
2023/08/26 10:37:23;;;;;;;1.65;1.48;;;;;;;24.02;41.85;96936.53;4836147;29;20650;-83
2023/08/26 10:39:49;;;;;;;1.58;1.02;;;;;;;23.95;42.09;96945.09;4840697;29;20280;-83
2023/08/26 10:42:16;;;;;;;2.58;1.45;;;;;;;23.96;41.77;96938.66;4850249;29;20207;-84
2023/08/26 10:44:45;;;;;;;1.75;1.52;;;;;;;23.91;42.62;96930.94;4852697;29;20195;-83
2023/08/26 10:47:11;;;;;;;2.20;1.20;;;;;;;24.02;41.57;96947.19;4836301;29;20714;-83
2023/08/26 10:49:37;;;;;;;2.50;1.92;;;;;;;23.98;43.82;96946.31;4852755;29;20279;-84
2023/08/26 10:52:16;;;;;;;2.95;1.60;;;;;;;24.09;43.03;96942.84;4835024;29;20291;-84
2023/08/26 10:54:46;;;;;;;2.47;1.63;;;;;;;24.25;45.07;96939.44;4852025;29;20215;-83
2023/08/26 10:57:12;;;;;;;1.92;1.40;;;;;;;24.27;46.03;96950.53;4836333;29;20177;-83
2023/08/26 10:59:40;;;;;;;1.85;1.48;;;;;;;24.45;44.30;96941.13;4867387;29;20227;-83
2023/08/26 11:02:07;;;;;;;2.60;1.77;;;;;;;24.55;44.32;96939.09;4832667;29;20612;-83
2023/08/26 11:04:35;;;;;;;2.15;1.60;;;;;;;24.64;42.75;96939.72;4836023;29;20714;-82
2023/08/26 11:07:00;;;;;;;1.73;1.60;;;;;;;24.68;43.04;96943.25;4834574;28;20223;-83
2023/08/26 11:09:26;;;;;;;2.58;2.03;;;;;;;24.59;42.12;96931.97;4852098;29;20614;-84
2023/08/26 11:11:51;;;;;;;2.65;1.67;;;;;;;24.52;43.76;96937.09;4870139;29;20144;-84
2023/08/26 11:14:17;;;;;;;3.08;1.60;;;;;;;24.69;43.81;96944.78;4822877;29;20296;-83
2023/08/26 11:16:42;;;;;;;1.38;1.27;;;;;;;24.77;42.72;96938.53;4849959;29;20199;-84
2023/08/26 11:19:08;;;;;;;2.05;1.45;;;;;;;24.77;42.24;96917.22;4867462;29;20922;-83
2023/08/26 11:21:37;;;;;;;2.35;1.50;;;;;;;24.91;42.47;96910.69;4856931;29;20032;-84
2023/08/26 11:24:03;;;;;;;2.00;1.27;;;;;;;24.99;44.12;96923.84;4857743;29;20027;-83
2023/08/26 11:26:28;;;;;;;2.15;1.50;;;;;;;25.08;42.49;96931.66;4875942;29;20433;-85
2023/08/26 11:28:54;;;;;;;1.60;1.50;;;;;;;25.24;43.58;96929.75;4844839;29;20019;-83
2023/08/26 11:31:19;;;;;;;2.28;1.60;;;;;;;25.34;43.67;96920.44;4861792;29;20042;-84
2023/08/26 11:33:45;;;;;;;2.22;1.70;;;;;;;25.49;42.43;96923.44;4846200;29;20042;-84